Time;durP1;ratioP1;P1;durP2;ratioP2;P2;SDS_P1;SDS_P2;PMS_P1;PMS_P2;Temp;Humidity;BMP_temperature;BMP_pressure;BME280_temperature;BME280_humidity;BME280_pressure;Samples;Min_cycle;Max_cycle;Signal;HPM_P1;HPM_P2
2022/05/04 00:01:10;;;;;;;14.57;2.33;;;8.90;99.90;;;;;;5032355;28;20116;-49
2022/05/04 00:03:39;;;;;;;13.68;2.72;;;8.80;99.90;;;;;;5032127;28;20485;-49
2022/05/04 00:06:09;;;;;;;8.38;2.63;;;8.90;99.90;;;;;;5032268;28;20504;-46
2022/05/04 00:08:35;;;;;;;8.77;2.40;;;9.00;99.90;;;;;;5032158;28;20037;-48
2022/05/04 00:11:01;;;;;;;10.45;2.70;;;8.80;99.90;;;;;;5032198;28;20565;-48
2022/05/04 00:13:28;;;;;;;9.55;2.50;;;8.70;99.90;;;;;;5032187;28;20041;-47
2022/05/04 00:15:54;;;;;;;8.52;2.50;;;8.80;99.90;;;;;;5051959;28;20447;-48
2022/05/04 00:18:19;;;;;;;9.43;2.20;;;8.70;99.90;;;;;;5044344;28;20123;-46
2022/05/04 00:20:45;;;;;;;14.07;2.92;;;8.50;99.90;;;;;;5030796;28;20041;-47
2022/05/04 00:23:11;;;;;;;12.43;3.05;;;8.50;99.90;;;;;;5031969;28;20045;-48
2022/05/04 00:25:37;;;;;;;12.00;2.70;;;8.60;99.90;;;;;;5031720;28;20440;-48
2022/05/04 00:28:04;;;;;;;9.32;2.28;;;8.50;99.90;;;;;;5031603;28;20037;-47
2022/05/04 00:30:31;;;;;;;11.93;2.92;;;8.50;99.90;;;;;;5050530;28;20037;-45
2022/05/04 00:32:56;;;;;;;9.13;2.78;;;8.60;99.90;;;;;;5051630;28;20392;-46
2022/05/04 00:35:22;;;;;;;10.63;2.70;;;8.60;99.90;;;;;;5049783;28;20032;-48
2022/05/04 00:37:48;;;;;;;15.55;2.60;;;8.60;99.90;;;;;;5051410;28;20480;-45
2022/05/04 00:40:13;;;;;;;11.60;2.40;;;8.60;99.90;;;;;;5051310;28;20071;-47
2022/05/04 00:42:39;;;;;;;10.38;2.78;;;8.60;99.90;;;;;;5051160;28;20098;-47
2022/05/04 00:45:05;;;;;;;11.73;2.92;;;8.50;99.90;;;;;;5051190;28;20045;-47
2022/05/04 00:47:31;;;;;;;7.95;2.45;;;8.50;99.90;;;;;;5051056;28;20033;-49
2022/05/04 00:50:04;;;;;;;13.27;2.53;;;8.50;99.90;;;;;;5050722;28;20060;-48
2022/05/04 00:52:32;;;;;;;11.68;2.30;;;8.60;99.90;;;;;;5051518;28;20047;-49
2022/05/04 00:54:59;;;;;;;13.73;3.13;;;8.60;99.90;;;;;;5051275;28;20033;-47
2022/05/04 01:00:11;;;;;;;12.20;3.20;;;8.60;99.90;;;;;;5051044;28;20060;-49
2022/05/04 01:02:40;;;;;;;9.43;2.80;;;8.70;99.90;;;;;;5051020;28;20041;-46
2022/05/04 01:05:09;;;;;;;9.23;2.58;;;8.70;99.90;;;;;;5051156;28;20105;-47
2022/05/04 01:07:39;;;;;;;10.68;3.25;;;8.60;99.90;;;;;;5051117;28;20469;-48
2022/05/04 01:10:06;;;;;;;12.40;2.67;;;8.60;99.90;;;;;;5066129;28;20076;-47
2022/05/04 01:12:31;;;;;;;10.75;2.75;;;8.70;99.90;;;;;;5050657;28;20036;-50
2022/05/04 01:14:58;;;;;;;8.05;2.47;;;8.50;99.90;;;;;;5050795;28;20055;-48
2022/05/04 01:17:24;;;;;;;11.65;2.50;;;8.50;99.90;;;;;;5050950;28;20041;-47
2022/05/04 01:19:50;;;;;;;10.40;2.55;;;8.50;99.90;;;;;;5050623;28;20038;-47
2022/05/04 01:22:16;;;;;;;9.57;2.42;;;8.50;99.90;;;;;;5050915;28;20041;-47
2022/05/04 01:24:41;;;;;;;11.25;2.60;;;8.50;99.90;;;;;;5050801;28;20036;-47
2022/05/04 01:27:11;;;;;;;12.10;2.58;;;8.40;99.90;;;;;;5050864;28;20468;-46
2022/05/04 01:29:37;;;;;;;9.95;2.75;;;8.50;99.90;;;;;;5050111;28;20114;-46
2022/05/04 01:32:03;;;;;;;12.18;2.92;;;8.50;99.90;;;;;;5050663;28;20076;-48
2022/05/04 01:34:28;;;;;;;15.20;2.67;;;8.50;99.90;;;;;;5050828;28;20552;-47
2022/05/04 01:36:54;;;;;;;9.70;2.63;;;8.60;99.90;;;;;;5050460;28;20112;-48
2022/05/04 01:39:20;;;;;;;9.40;2.67;;;8.50;99.90;;;;;;5050535;28;20042;-46
2022/05/04 01:42:05;;;;;;;13.27;2.88;;;8.50;99.90;;;;;;5050474;28;20090;-47
2022/05/04 01:44:35;;;;;;;9.48;2.50;;;8.40;99.90;;;;;;5050858;28;20040;-47
2022/05/04 01:47:01;;;;;;;9.73;2.50;;;8.40;99.90;;;;;;5050289;28;20392;-46
2022/05/04 01:49:27;;;;;;;10.70;2.60;;;8.30;99.90;;;;;;5050021;28;20048;-47
2022/05/04 01:51:53;;;;;;;11.00;2.88;;;8.40;99.90;;;;;;5050424;28;20053;-47
2022/05/04 01:54:19;;;;;;;13.40;2.65;;;8.40;99.90;;;;;;5050545;28;20080;-47
2022/05/04 01:56:45;;;;;;;8.43;2.90;;;8.40;99.90;;;;;;5047152;28;20033;-47
2022/05/04 01:59:11;;;;;;;10.70;2.83;;;8.40;99.90;;;;;;5030217;28;20424;-47
2022/05/04 02:01:38;;;;;;;10.23;2.85;;;8.40;99.90;;;;;;5030758;28;20029;-48
2022/05/04 02:04:04;;;;;;;14.30;2.92;;;8.40;99.90;;;;;;5032092;28;20048;-46
2022/05/04 02:06:30;;;;;;;10.15;3.22;;;8.30;99.90;;;;;;5030612;28;20038;-46
2022/05/04 02:08:57;;;;;;;10.30;2.67;;;8.20;99.90;;;;;;5030451;28;20029;-45
2022/05/04 02:11:24;;;;;;;11.88;2.88;;;8.20;99.90;;;;;;5030359;28;20040;-47
2022/05/04 02:13:50;;;;;;;11.85;2.70;;;8.30;99.90;;;;;;5031729;28;20048;-47
2022/05/04 02:16:16;;;;;;;11.50;2.95;;;8.20;99.90;;;;;;5030367;28;21357;-47
2022/05/04 02:18:42;;;;;;;14.80;2.97;;;8.30;99.90;;;;;;5031118;28;20041;-46
2022/05/04 02:21:08;;;;;;;10.88;2.85;;;8.30;99.90;;;;;;5030010;28;20037;-47
2022/05/04 02:23:34;;;;;;;11.65;3.35;;;8.20;99.90;;;;;;5030362;28;20099;-45
2022/05/04 02:26:00;;;;;;;11.40;2.90;;;8.30;99.90;;;;;;5030385;28;20420;-47
2022/05/04 02:28:25;;;;;;;11.75;3.05;;;8.30;99.90;;;;;;5029949;28;20541;-46
2022/05/04 02:30:51;;;;;;;13.50;3.20;;;8.30;99.90;;;;;;5030350;28;20038;-45
2022/05/04 02:33:17;;;;;;;10.88;2.60;;;8.30;99.90;;;;;;5030265;28;20037;-47
2022/05/04 02:38:27;;;;;;;8.13;2.72;;;8.20;99.90;;;;;;5030310;28;20121;-47
2022/05/04 02:40:53;;;;;;;12.38;3.28;;;8.20;99.90;;;;;;5030046;28;20109;-45
2022/05/04 02:43:19;;;;;;;12.57;3.42;;;8.20;99.90;;;;;;5031248;28;20454;-47
2022/05/04 02:45:45;;;;;;;9.15;2.95;;;8.20;99.90;;;;;;5033782;28;20037;-47
2022/05/04 02:48:11;;;;;;;11.25;2.85;;;7.90;99.90;;;;;;5033766;28;20211;-47
2022/05/04 02:50:37;;;;;;;11.48;2.83;;;8.20;99.90;;;;;;5031844;28;20054;-50
2022/05/04 02:53:06;;;;;;;7.72;2.88;;;8.30;99.90;;;;;;5048758;28;20049;-47
2022/05/04 02:55:32;;;;;;;18.40;3.17;;;8.20;99.90;;;;;;5033722;28;20574;-48
2022/05/04 02:57:58;;;;;;;13.02;2.80;;;8.20;99.90;;;;;;5031492;28;20077;-48
2022/05/04 03:00:25;;;;;;;10.73;3.28;;;8.20;99.90;;;;;;5033858;28;20361;-47
2022/05/04 03:02:51;;;;;;;10.20;3.08;;;8.20;99.90;;;;;;5032218;28;20049;-48
2022/05/04 03:05:17;;;;;;;10.60;2.90;;;8.20;99.90;;;;;;5033290;28;20053;-47
2022/05/04 03:07:43;;;;;;;12.70;2.70;;;8.20;99.90;;;;;;5033516;28;20049;-45
2022/05/04 03:10:10;;;;;;;11.77;2.80;;;8.10;99.90;;;;;;5033588;28;20500;-47
2022/05/04 03:12:36;;;;;;;14.18;3.35;;;8.20;99.90;;;;;;5033321;28;20025;-48
2022/05/04 03:15:03;;;;;;;13.02;4.00;;;8.20;99.90;;;;;;5033137;28;20056;-47
2022/05/04 03:17:29;;;;;;;10.23;3.38;;;8.20;99.90;;;;;;5032950;28;20095;-47
2022/05/04 03:19:55;;;;;;;11.60;3.50;;;8.20;99.90;;;;;;5033236;28;20217;-47
2022/05/04 03:22:20;;;;;;;11.10;3.03;;;8.10;99.90;;;;;;5033154;28;20037;-45
2022/05/04 03:24:46;;;;;;;10.45;3.42;;;8.00;99.90;;;;;;5032740;28;20041;-46
2022/05/04 03:27:12;;;;;;;11.50;3.60;;;8.00;99.90;;;;;;5033032;28;20087;-45
2022/05/04 03:29:37;;;;;;;12.60;3.53;;;8.10;99.90;;;;;;5032562;28;20037;-46
2022/05/04 03:32:04;;;;;;;12.32;3.80;;;8.00;99.90;;;;;;5032618;28;20045;-48
2022/05/04 03:34:30;;;;;;;12.38;4.13;;;8.00;99.90;;;;;;5032850;28;20042;-47
2022/05/04 03:36:58;;;;;;;14.80;3.78;;;8.00;99.90;;;;;;5045895;28;20072;-46
2022/05/04 03:39:24;;;;;;;12.93;4.07;;;8.00;99.90;;;;;;5052367;28;20040;-46
2022/05/04 03:41:50;;;;;;;14.20;3.78;;;8.00;99.90;;;;;;5052723;28;20155;-48
2022/05/04 03:44:16;;;;;;;13.43;4.18;;;7.80;99.90;;;;;;5050925;28;20120;-46
2022/05/04 03:46:49;;;;;;;11.10;4.20;;;7.90;99.90;;;;;;5052269;28;20465;-48
2022/05/04 03:49:17;;;;;;;19.80;4.03;;;7.90;99.90;;;;;;5051944;28;20053;-45
2022/05/04 03:51:44;;;;;;;12.60;4.18;;;7.80;99.90;;;;;;5051861;28;20084;-46
2022/05/04 03:54:10;;;;;;;12.27;4.18;;;7.90;99.90;;;;;;5052201;28;20071;-47
2022/05/04 03:56:37;;;;;;;13.50;4.15;;;7.90;99.90;;;;;;5051208;28;20534;-46
2022/05/04 03:59:05;;;;;;;13.00;4.03;;;7.90;99.90;;;;;;5051902;28;20033;-45
2022/05/04 04:01:31;;;;;;;12.85;4.22;;;7.90;99.90;;;;;;5052207;28;20366;-48
2022/05/04 04:03:56;;;;;;;13.68;3.55;;;7.80;99.90;;;;;;5052259;28;20048;-46
2022/05/04 04:06:22;;;;;;;13.20;4.32;;;7.90;99.90;;;;;;5052157;28;20044;-46
2022/05/04 04:08:51;;;;;;;13.10;4.65;;;7.90;99.90;;;;;;5051997;28;20033;-46
2022/05/04 04:11:18;;;;;;;13.40;4.07;;;7.80;99.90;;;;;;5051814;28;20037;-45
2022/05/04 04:13:44;;;;;;;16.10;4.20;;;7.80;99.90;;;;;;5052157;28;20033;-48
2022/05/04 04:16:09;;;;;;;12.75;4.30;;;7.80;99.90;;;;;;5051989;28;20511;-48
2022/05/04 04:18:35;;;;;;;14.30;4.30;;;7.90;99.90;;;;;;5051636;28;20484;-46
2022/05/04 04:23:45;;;;;;;13.82;4.18;;;7.90;99.90;;;;;;5051983;28;20037;-47
2022/05/04 04:26:11;;;;;;;14.70;4.22;;;7.90;99.90;;;;;;5051659;28;20033;-48
2022/05/04 04:28:38;;;;;;;11.55;4.22;;;7.90;99.90;;;;;;5051466;28;20037;-47
2022/05/04 04:31:05;;;;;;;12.98;4.47;;;7.90;99.90;;;;;;5051599;28;20086;-47
2022/05/04 04:33:31;;;;;;;13.85;4.28;;;7.90;99.90;;;;;;5051533;28;20072;-46
2022/05/04 04:35:57;;;;;;;10.32;4.30;;;7.90;99.90;;;;;;5051782;28;20076;-45
2022/05/04 04:38:23;;;;;;;14.40;4.40;;;7.80;99.90;;;;;;5051609;28;20044;-46
2022/05/04 04:40:50;;;;;;;11.85;4.35;;;7.80;99.90;;;;;;5051064;28;20437;-48
2022/05/04 04:43:15;;;;;;;17.23;4.93;;;7.80;99.90;;;;;;5050394;28;20036;-47
2022/05/04 04:45:44;;;;;;;11.63;4.13;;;7.80;99.90;;;;;;5051117;28;20113;-46
2022/05/04 04:48:10;;;;;;;11.82;4.18;;;7.80;99.90;;;;;;5051464;28;20033;-49
2022/05/04 04:50:36;;;;;;;16.35;5.10;;;7.80;99.90;;;;;;5050671;28;20045;-50
2022/05/04 04:53:01;;;;;;;13.70;4.57;;;7.80;99.90;;;;;;5051081;28;20475;-48
2022/05/04 04:55:27;;;;;;;12.15;4.05;;;7.80;99.90;;;;;;5051044;28;20037;-46
2022/05/04 04:57:53;;;;;;;11.73;3.85;;;7.80;99.90;;;;;;5039660;28;20080;-48
2022/05/04 05:00:20;;;;;;;10.52;3.40;;;7.80;99.90;;;;;;5030740;28;20041;-47
2022/05/04 05:02:46;;;;;;;13.07;3.97;;;7.80;99.90;;;;;;5031250;28;20041;-45
2022/05/04 05:05:12;;;;;;;12.35;3.50;;;7.80;99.90;;;;;;5031316;28;20044;-44
2022/05/04 05:07:38;;;;;;;12.13;3.85;;;7.80;99.90;;;;;;5030996;28;20370;-45
2022/05/04 05:10:05;;;;;;;13.50;3.63;;;7.90;99.90;;;;;;5029705;28;20038;-47
2022/05/04 05:12:31;;;;;;;11.52;3.45;;;7.90;99.90;;;;;;5031118;28;20041;-48
2022/05/04 05:17:40;;;;;;;11.88;3.17;;;7.90;99.90;;;;;;5031326;28;20056;-47
2022/05/04 05:20:07;;;;;;;13.75;3.47;;;7.90;99.90;;;;;;5031240;28;20049;-47
2022/05/04 05:22:33;;;;;;;10.40;3.42;;;8.00;99.90;;;;;;5031169;28;20041;-48
2022/05/04 05:24:58;;;;;;;10.18;3.45;;;8.10;99.90;;;;;;5031063;28;20112;-47
2022/05/04 05:27:24;;;;;;;11.50;3.90;;;8.20;99.90;;;;;;5030896;28;20049;-49
2022/05/04 05:29:50;;;;;;;11.23;3.95;;;8.20;99.90;;;;;;5030622;28;20044;-47
2022/05/04 05:32:16;;;;;;;14.13;4.00;;;8.10;99.90;;;;;;5031128;28;20453;-48
2022/05/04 05:34:42;;;;;;;15.30;4.05;;;8.10;99.90;;;;;;5030999;28;20037;-46
2022/05/04 05:37:07;;;;;;;13.77;3.92;;;8.20;99.90;;;;;;5030789;28;20045;-45
2022/05/04 05:39:33;;;;;;;8.98;4.00;;;8.10;99.90;;;;;;5029710;28;20132;-46
2022/05/04 05:41:59;;;;;;;15.05;3.92;;;8.20;99.90;;;;;;5030990;28;20099;-48
2022/05/04 05:44:25;;;;;;;11.82;3.65;;;8.20;99.90;;;;;;5030586;28;20950;-47
2022/05/04 05:46:51;;;;;;;14.95;4.20;;;8.30;99.90;;;;;;5030631;28;20048;-49
2022/05/04 05:49:16;;;;;;;11.65;3.30;;;8.30;99.90;;;;;;5030693;28;20041;-45
2022/05/04 05:51:42;;;;;;;11.40;3.17;;;8.30;99.90;;;;;;5030757;28;20041;-47
2022/05/04 05:54:08;;;;;;;9.30;3.10;;;8.40;99.90;;;;;;5030524;28;20099;-47
2022/05/04 05:56:33;;;;;;;8.30;3.00;;;8.40;99.90;;;;;;5030782;28;20313;-45
2022/05/04 05:58:59;;;;;;;9.32;3.10;;;8.40;99.90;;;;;;5030473;28;20453;-48
2022/05/04 06:01:25;;;;;;;10.75;3.67;;;8.40;99.90;;;;;;5030445;28;20485;-49
2022/05/04 06:03:52;;;;;;;12.90;3.60;;;8.40;99.90;;;;;;5030232;28;20034;-47
2022/05/04 06:06:18;;;;;;;8.27;3.20;;;8.40;99.90;;;;;;5030781;28;20041;-47
2022/05/04 06:08:44;;;;;;;13.68;3.55;;;8.40;99.90;;;;;;5030699;28;20041;-50
2022/05/04 06:11:09;;;;;;;13.13;3.80;;;8.40;99.90;;;;;;5029432;28;20048;-47
2022/05/04 06:13:35;;;;;;;16.50;3.75;;;8.40;99.90;;;;;;5030722;28;20034;-47
2022/05/04 06:16:01;;;;;;;14.35;3.63;;;8.50;99.90;;;;;;5030440;28;20045;-46
2022/05/04 06:18:26;;;;;;;14.57;3.70;;;8.60;99.90;;;;;;5031605;28;20055;-46
2022/05/04 06:20:52;;;;;;;12.77;3.97;;;8.50;99.90;;;;;;5034188;28;20079;-46
2022/05/04 06:23:17;;;;;;;14.23;3.97;;;8.60;99.90;;;;;;5034743;28;20033;-47
2022/05/04 06:25:45;;;;;;;11.95;3.75;;;8.50;99.90;;;;;;5034315;28;20049;-48
2022/05/04 06:28:12;;;;;;;11.48;3.47;;;8.70;99.90;;;;;;5049103;28;20037;-47
2022/05/04 06:36:06;;;;;;;;;;;8.60;99.90;;;;;;5047775;28;20124;-47
2022/05/04 06:38:32;;;;;;;8.88;3.50;;;8.70;99.90;;;;;;5034173;28;20019;-47
2022/05/04 06:40:58;;;;;;;14.13;4.38;;;8.70;99.90;;;;;;5037772;28;20456;-47
2022/05/04 06:43:24;;;;;;;9.60;3.70;;;8.90;99.90;;;;;;5033590;28;20033;-47
2022/05/04 06:45:50;;;;;;;12.30;3.40;;;9.00;99.90;;;;;;5034065;28;20487;-46
2022/05/04 06:48:15;;;;;;;9.88;3.10;;;9.00;99.90;;;;;;5033599;28;20065;-47
2022/05/04 06:50:41;;;;;;;8.20;3.30;;;9.00;99.90;;;;;;5033336;28;20054;-47
2022/05/04 06:53:07;;;;;;;12.70;3.30;;;9.00;99.90;;;;;;5033854;28;20034;-48
2022/05/04 06:55:32;;;;;;;11.43;2.92;;;9.20;99.90;;;;;;5033399;28;20052;-48
2022/05/04 06:57:58;;;;;;;10.85;2.83;;;9.00;99.90;;;;;;5030165;28;20034;-49
2022/05/04 07:00:24;;;;;;;15.55;3.05;;;9.10;99.90;;;;;;5034823;28;20041;-49
2022/05/04 07:02:49;;;;;;;12.73;2.97;;;9.20;99.90;;;;;;5032472;28;20044;-50
2022/05/04 07:05:15;;;;;;;12.30;3.00;;;9.30;99.90;;;;;;5035317;28;20037;-50
2022/05/04 07:07:41;;;;;;;7.72;2.92;;;9.30;99.90;;;;;;5029434;28;20390;-48
2022/05/04 07:10:08;;;;;;;13.95;3.85;;;9.40;99.90;;;;;;5045747;28;20516;-48
2022/05/04 07:12:33;;;;;;;9.77;3.17;;;9.30;99.90;;;;;;5032536;28;20029;-48
2022/05/04 07:14:59;;;;;;;11.07;2.58;;;9.30;99.90;;;;;;5029253;28;20116;-46
2022/05/04 07:17:26;;;;;;;10.95;2.95;;;9.30;99.90;;;;;;5032515;28;20040;-47
2022/05/04 07:19:52;;;;;;;8.18;2.63;;;9.30;99.90;;;;;;5032846;28;20455;-49
2022/05/04 07:22:18;;;;;;;12.82;3.30;;;9.40;99.90;;;;;;5032348;28;20045;-48
2022/05/04 07:24:43;;;;;;;11.20;3.05;;;9.20;99.90;;;;;;5032481;28;20059;-51
2022/05/04 07:27:09;;;;;;;11.52;2.88;;;9.10;99.90;;;;;;5030973;28;20976;-51
2022/05/04 07:29:35;;;;;;;9.65;2.65;;;9.20;99.90;;;;;;5037103;28;20040;-46
2022/05/04 07:32:02;;;;;;;9.77;2.97;;;9.20;99.90;;;;;;5028931;28;20037;-46
2022/05/04 07:34:28;;;;;;;13.38;2.58;;;9.10;99.90;;;;;;5033390;28;20073;-45
2022/05/04 07:36:53;;;;;;;11.02;2.78;;;9.20;99.90;;;;;;5034039;28;20076;-46
2022/05/04 07:42:22;;;;;;;10.35;2.72;;;9.30;99.90;;;;;;5037294;28;20503;-46
2022/05/04 07:45:04;;;;;;;9.25;2.88;;;9.40;99.90;;;;;;5030816;28;20053;-45
2022/05/04 07:47:33;;;;;;;8.25;2.50;;;9.10;99.90;;;;;;5032636;28;20044;-46
2022/05/04 07:50:00;;;;;;;12.27;2.65;;;9.20;99.90;;;;;;5037981;28;20049;-45
2022/05/04 07:52:26;;;;;;;12.52;2.58;;;9.10;99.90;;;;;;5031602;28;20048;-47
2022/05/04 07:54:52;;;;;;;11.82;2.55;;;9.00;99.90;;;;;;5031956;28;21178;-47
2022/05/04 07:57:19;;;;;;;10.77;2.40;;;9.30;99.90;;;;;;5031327;28;20041;-46
2022/05/04 08:04:16;;;;;;;10.20;2.75;;;9.30;99.90;;;;;;5036430;28;20033;-46
2022/05/04 08:05:15;;;;;;;11.98;2.70;;;9.20;99.90;;;;;;5029572;28;20049;-47
2022/05/04 08:07:41;;;;;;;10.57;3.05;;;9.40;99.90;;;;;;5030973;28;20167;-45
2022/05/04 08:10:07;;;;;;;9.73;2.40;;;9.40;99.90;;;;;;5027665;28;20401;-46
2022/05/04 08:12:33;;;;;;;12.93;2.58;;;9.50;99.90;;;;;;5024410;28;20045;-48
2022/05/04 08:14:59;;;;;;;10.98;2.25;;;9.50;99.90;;;;;;5028507;28;20094;-47
2022/05/04 08:17:25;;;;;;;10.65;2.38;;;9.60;99.90;;;;;;5043622;28;20049;-46
2022/05/04 08:19:51;;;;;;;17.60;2.67;;;9.50;99.90;;;;;;5031465;28;20485;-45
2022/05/04 08:22:18;;;;;;;10.95;2.30;;;9.50;99.90;;;;;;5029507;28;20045;-48
2022/05/04 08:24:43;;;;;;;11.63;2.53;;;9.60;99.90;;;;;;5035866;28;20128;-49
2022/05/04 08:27:09;;;;;;;8.15;2.85;;;9.30;99.90;;;;;;5032606;28;20127;-49
2022/05/04 08:29:35;;;;;;;12.65;2.97;;;9.40;99.90;;;;;;5031741;28;20033;-48
2022/05/04 08:32:01;;;;;;;12.40;2.75;;;9.60;99.90;;;;;;5034903;28;20102;-47
2022/05/04 08:34:26;;;;;;;10.57;2.45;;;9.70;99.90;;;;;;5028087;28;20076;-47
2022/05/04 08:36:52;;;;;;;11.82;2.50;;;9.80;99.90;;;;;;5030616;28;20562;-48
2022/05/04 08:39:18;;;;;;;9.75;2.40;;;9.80;99.90;;;;;;5029983;28;20547;-48
2022/05/04 08:41:44;;;;;;;7.15;2.47;;;10.20;99.90;;;;;;5032110;28;20052;-46
2022/05/04 08:44:11;;;;;;;7.93;2.40;;;10.10;99.90;;;;;;5033104;28;20039;-48
2022/05/04 08:46:42;;;;;;;11.35;2.58;;;10.40;99.90;;;;;;5039955;28;20102;-47
2022/05/04 08:49:11;;;;;;;11.35;3.00;;;10.40;99.90;;;;;;5048870;28;20122;-49
2022/05/04 08:51:37;;;;;;;10.32;3.10;;;10.80;99.90;;;;;;5049463;28;20029;-45
2022/05/04 08:54:07;;;;;;;9.73;2.88;;;10.90;99.90;;;;;;5050260;28;20043;-46
2022/05/04 08:56:34;;;;;;;11.02;2.97;;;11.00;99.90;;;;;;5050944;28;20036;-47
2022/05/04 08:59:06;;;;;;;7.22;2.70;;;11.20;99.90;;;;;;5051076;28;20361;-48
2022/05/04 09:01:33;;;;;;;7.40;2.53;;;11.30;99.90;;;;;;5050833;28;20028;-47
2022/05/04 09:03:59;;;;;;;13.20;2.67;;;11.40;99.90;;;;;;5051155;28;20500;-46
2022/05/04 09:06:27;;;;;;;14.05;3.38;;;11.20;99.90;;;;;;5050872;28;20120;-45
2022/05/04 09:09:04;;;;;;;9.88;2.60;;;10.90;99.90;;;;;;5065975;28;20040;-46
2022/05/04 09:11:32;;;;;;;7.80;2.70;;;11.00;99.90;;;;;;5049796;28;20131;-46
2022/05/04 09:13:58;;;;;;;13.45;3.10;;;10.80;99.90;;;;;;5051034;28;20111;-47
2022/05/04 09:16:32;;;;;;;11.63;2.50;;;10.70;99.90;;;;;;5050718;28;20045;-47
2022/05/04 09:19:06;;;;;;;7.93;2.58;;;10.80;99.90;;;;;;5050899;28;20041;-46
2022/05/04 09:21:32;;;;;;;;;;;11.00;99.90;;;;;;5051306;28;20044;-49
2022/05/04 09:23:58;;;;;;;12.38;2.53;;;11.30;99.90;;;;;;5050892;28;20387;-51
2022/05/04 09:26:24;;;;;;;9.95;2.70;;;11.70;99.90;;;;;;5050774;28;20041;-47
2022/05/04 09:29:01;;;;;;;12.93;2.85;;;11.70;99.90;;;;;;5050157;28;20039;-47
2022/05/04 09:31:32;;;;;;;9.85;2.90;;;12.00;99.90;;;;;;5049001;28;20439;-49
2022/05/04 09:34:00;;;;;;;9.18;2.80;;;12.30;99.90;;;;;;5048281;28;20130;-48
2022/05/04 09:45:25;;;;;;;9.65;2.90;;;12.20;99.90;;;;;;5035052;28;21291;-48
2022/05/04 09:47:51;;;;;;;9.15;2.65;;;12.40;99.90;;;;;;5032971;28;20151;-48
2022/05/04 09:50:18;;;;;;;11.13;3.10;;;12.60;99.90;;;;;;5037349;28;20124;-46
2022/05/04 09:52:48;;;;;;;12.60;2.42;;;11.90;99.90;;;;;;5041698;28;20045;-46
2022/05/04 09:55:17;;;;;;;11.32;2.80;;;12.10;99.90;;;;;;5042075;28;20040;-48
2022/05/04 09:57:44;;;;;;;11.15;2.50;;;12.10;99.90;;;;;;5045920;28;20095;-48
2022/05/04 10:00:12;;;;;;;10.35;3.30;;;12.50;99.90;;;;;;5042026;28;20123;-47
2022/05/04 10:02:39;;;;;;;7.35;2.65;;;12.50;99.90;;;;;;5045498;28;20120;-49
2022/05/04 10:05:05;;;;;;;10.85;2.90;;;12.50;99.90;;;;;;5052681;28;20568;-46
2022/05/04 10:07:31;;;;;;;10.55;2.78;;;12.50;99.90;;;;;;5054388;28;20037;-47
2022/05/04 10:09:57;;;;;;;11.88;2.85;;;12.80;99.90;;;;;;5053986;28;20040;-48
2022/05/04 10:12:26;;;;;;;9.07;2.90;;;12.50;99.90;;;;;;5054368;28;20029;-47
2022/05/04 10:14:54;;;;;;;10.48;2.80;;;12.50;99.90;;;;;;5054345;28;20044;-45
2022/05/04 10:17:25;;;;;;;12.13;2.70;;;12.70;99.90;;;;;;5054161;28;20499;-49
2022/05/04 10:20:11;;;;;;;14.50;3.03;;;12.60;99.90;;;;;;5054399;28;20049;-50
2022/05/04 10:22:39;;;;;;;8.75;2.45;;;12.40;99.90;;;;;;5047387;28;20041;-47
2022/05/04 10:25:06;;;;;;;9.73;2.67;;;12.80;99.90;;;;;;5044342;28;20119;-49
2022/05/04 10:27:39;;;;;;;10.65;2.60;;;12.30;99.40;;;;;;5041892;28;20120;-50
2022/05/04 10:32:55;;;;;;;7.22;2.83;;;12.80;99.90;;;;;;5038323;28;20055;-49
2022/05/04 10:35:40;;;;;;;8.07;2.60;;;13.00;99.90;;;;;;5036273;28;20048;-48
2022/05/04 10:38:26;;;;;;;8.27;2.67;;;13.30;99.90;;;;;;5038166;28;20056;-49
2022/05/04 10:40:57;;;;;;;10.18;2.80;;;13.30;99.20;;;;;;5032983;28;20349;-51
2022/05/04 10:43:37;;;;;;;8.90;2.72;;;13.60;99.90;;;;;;5042259;28;20037;-51
2022/05/04 10:46:16;;;;;;;8.63;2.58;;;13.50;99.20;;;;;;5031111;28;20164;-50
2022/05/04 10:48:54;;;;;;;11.63;2.80;;;13.50;98.90;;;;;;5032852;28;20048;-49
2022/05/04 10:51:24;;;;;;;10.63;2.83;;;13.30;98.50;;;;;;5033823;28;20059;-50
2022/05/04 10:53:53;;;;;;;8.30;3.00;;;13.40;99.00;;;;;;5033814;28;20076;-51
2022/05/04 10:56:22;;;;;;;11.73;3.15;;;13.30;98.80;;;;;;5034888;28;20408;-49
2022/05/04 10:58:51;;;;;;;8.27;2.80;;;13.30;99.30;;;;;;5035948;28;20034;-51
2022/05/04 11:01:30;;;;;;;12.90;3.47;;;13.20;99.00;;;;;;5033938;28;20036;-49
2022/05/04 11:04:05;;;;;;;12.48;3.00;;;13.30;99.20;;;;;;5031119;28;20057;-48
2022/05/04 11:06:45;;;;;;;11.15;3.08;;;13.50;98.50;;;;;;5029187;28;20088;-48
2022/05/04 11:09:16;;;;;;;10.18;2.65;;;13.90;99.50;;;;;;5037700;28;20377;-47
2022/05/04 11:11:45;;;;;;;6.25;2.47;;;14.30;99.40;;;;;;5043910;28;20033;-49
2022/05/04 11:14:13;;;;;;;11.27;2.88;;;14.30;98.20;;;;;;5038631;28;20044;-51
2022/05/04 11:16:41;;;;;;;10.27;2.63;;;14.20;97.70;;;;;;5034342;28;20473;-49
2022/05/04 11:19:07;;;;;;;9.40;2.85;;;14.10;97.50;;;;;;5048053;28;20460;-46
2022/05/04 11:21:39;;;;;;;7.72;2.38;;;14.30;97.90;;;;;;5040618;28;20080;-49
2022/05/04 11:24:07;;;;;;;9.52;2.85;;;14.10;97.20;;;;;;5032988;28;20054;-49
2022/05/04 11:26:36;;;;;;;8.38;2.85;;;14.30;96.80;;;;;;5032722;28;20038;-46
2022/05/04 11:29:23;;;;;;;9.07;2.90;;;14.50;98.40;;;;;;5032470;28;20042;-49
2022/05/04 11:31:54;;;;;;;9.20;2.83;;;14.50;96.80;;;;;;5048524;28;20064;-47
2022/05/04 11:34:25;;;;;;;10.70;2.70;;;14.40;97.00;;;;;;5033081;28;20494;-50
2022/05/04 11:36:52;;;;;;;13.40;3.10;;;14.20;96.70;;;;;;5032921;28;20046;-48
2022/05/04 11:39:25;;;;;;;12.07;3.05;;;14.10;97.60;;;;;;5033605;28;20049;-48
2022/05/04 11:41:52;;;;;;;9.73;3.38;;;14.10;97.60;;;;;;5033553;28;20041;-45
2022/05/04 11:44:23;;;;;;;8.80;3.00;;;14.20;97.70;;;;;;5032829;28;20045;-49
2022/05/04 11:46:50;;;;;;;6.50;2.92;;;14.40;97.60;;;;;;5032909;28;20400;-47
2022/05/04 11:49:18;;;;;;;13.15;3.10;;;14.70;97.70;;;;;;5033654;28;20088;-48
2022/05/04 11:51:43;;;;;;;8.18;3.00;;;15.10;97.40;;;;;;5032671;28;20041;-45
2022/05/04 11:54:09;;;;;;;10.95;2.92;;;15.10;96.80;;;;;;5035485;28;20041;-46
2022/05/04 11:56:36;;;;;;;10.05;3.03;;;15.30;96.90;;;;;;5032553;28;20041;-44
2022/05/04 11:59:02;;;;;;;12.40;3.10;;;15.20;96.60;;;;;;5032040;28;20179;-46
2022/05/04 12:01:28;;;;;;;11.68;3.13;;;15.40;96.30;;;;;;5032264;28;20116;-45
2022/05/04 12:03:55;;;;;;;7.38;2.53;;;15.40;96.80;;;;;;5032725;28;20045;-46
2022/05/04 12:06:21;;;;;;;10.23;2.95;;;15.50;95.50;;;;;;5032174;28;20045;-45
2022/05/04 12:08:47;;;;;;;9.65;3.08;;;15.80;96.20;;;;;;5030804;28;20108;-48
2022/05/04 12:11:16;;;;;;;10.70;3.22;;;15.90;96.40;;;;;;5032353;28;20128;-47
2022/05/04 12:13:42;;;;;;;8.57;3.00;;;15.60;95.60;;;;;;5032184;28;20029;-46
2022/05/04 12:16:10;;;;;;;10.52;3.00;;;15.80;95.60;;;;;;5031135;28;20183;-44
2022/05/04 12:18:37;;;;;;;6.78;2.60;;;16.30;95.70;;;;;;5031733;28;20379;-45
2022/05/04 12:21:16;;;;;;;11.75;2.67;;;16.20;95.60;;;;;;5032230;28;20041;-45
2022/05/04 12:23:44;;;;;;;7.63;3.00;;;16.20;95.10;;;;;;5031861;28;20037;-46
2022/05/04 12:26:12;;;;;;;9.60;2.60;;;16.40;95.60;;;;;;5031879;28;20044;-47
2022/05/04 12:28:39;;;;;;;10.48;2.80;;;16.70;95.10;;;;;;5046641;28;20098;-46
2022/05/04 12:33:49;;;;;;;;;;;16.80;94.80;;;;;;5032397;28;20117;-47
2022/05/04 12:36:17;;;;;;;11.43;3.03;;;16.70;95.70;;;;;;5031702;28;20043;-48
2022/05/04 12:38:46;;;;;;;9.40;2.63;;;16.70;94.20;;;;;;5031772;28;20037;-50
2022/05/04 12:41:14;;;;;;;7.43;2.67;;;16.30;94.20;;;;;;5031833;28;20037;-50
2022/05/04 12:43:40;;;;;;;8.20;2.58;;;16.70;94.30;;;;;;5046616;28;20133;-50
2022/05/04 12:46:11;;;;;;;12.25;3.00;;;16.70;93.80;;;;;;5031342;28;20504;-46
2022/05/04 12:48:39;;;;;;;10.93;2.80;;;16.40;94.40;;;;;;5031592;28;20408;-46
2022/05/04 12:51:07;;;;;;;11.48;3.10;;;16.60;94.70;;;;;;5031284;28;20049;-46
2022/05/04 12:53:33;;;;;;;6.70;2.80;;;16.50;93.90;;;;;;5031234;28;20073;-49
2022/05/04 12:58:43;;;;;;;;;;;16.60;94.20;;;;;;5050890;28;20127;-46
2022/05/04 13:01:09;;;;;;;10.98;3.17;;;16.70;93.00;;;;;;5051274;28;20431;-47
2022/05/04 13:03:35;;;;;;;11.10;3.00;;;17.20;92.90;;;;;;5043255;28;20033;-46
2022/05/04 13:06:01;;;;;;;8.00;2.60;;;17.30;93.20;;;;;;5031436;28;20037;-45
2022/05/04 13:08:27;;;;;;;8.45;2.70;;;17.70;93.50;;;;;;5032250;28;20511;-46
2022/05/04 13:10:53;;;;;;;9.52;2.80;;;17.60;93.10;;;;;;5031799;28;20033;-45
2022/05/04 13:13:20;;;;;;;6.30;2.60;;;17.70;90.80;;;;;;5032274;28;20511;-45
2022/05/04 13:15:52;;;;;;;8.13;2.80;;;17.20;92.30;;;;;;5030923;28;20033;-48
2022/05/04 13:18:19;;;;;;;9.88;2.90;;;17.20;92.10;;;;;;5042094;28;20068;-47
2022/05/04 13:20:45;;;;;;;10.82;2.80;;;16.90;91.10;;;;;;5030994;28;20048;-46
2022/05/04 13:23:11;;;;;;;10.45;2.83;;;17.20;92.20;;;;;;5031906;28;20064;-45
2022/05/04 13:25:37;;;;;;;14.43;3.20;;;17.30;92.20;;;;;;5030969;28;20037;-47
2022/05/04 13:28:04;;;;;;;12.52;3.05;;;17.00;91.40;;;;;;5030709;28;20429;-46